createdAt,value
2016-06-20T00:00:50.134Z,0
2016-06-20T00:01:50.777Z,0
2016-06-20T00:02:49.594Z,0
2016-06-20T00:03:50.222Z,0
2016-06-20T00:04:49.662Z,0
2016-06-20T00:05:51.526Z,0
2016-06-20T00:06:49.122Z,0
2016-06-20T00:07:51.001Z,0
2016-06-20T00:08:49.801Z,0
2016-06-20T00:09:50.446Z,0
2016-06-20T00:10:51.074Z,0
2016-06-20T00:11:51.125Z,0
2016-06-20T00:12:49.940Z,0
2016-06-20T00:13:49.959Z,0
2016-06-20T00:14:49.400Z,0
2016-06-20T00:15:49.451Z,0
2016-06-20T00:16:51.298Z,0
2016-06-20T00:17:50.098Z,0
2016-06-20T00:18:50.758Z,0
2016-06-20T00:19:51.418Z,0
2016-06-20T00:20:50.828Z,0
2016-06-20T00:21:50.284Z,0
2016-06-20T00:22:52.116Z,0
2016-06-20T00:23:51.525Z,0
2016-06-20T00:24:51.576Z,0
2016-06-20T00:25:50.407Z,0
2016-06-20T00:26:51.660Z,0
2016-06-20T00:27:51.071Z,0
2016-06-20T00:28:51.137Z,0
2016-06-20T00:29:51.156Z,0
2016-06-20T00:30:51.784Z,0
2016-06-20T00:31:50.616Z,0
2016-06-20T00:32:51.276Z,0
2016-06-20T00:33:50.670Z,0
2016-06-20T00:34:51.923Z,0
2016-06-20T00:35:51.348Z,0
2016-06-20T00:36:50.790Z,0
2016-06-20T00:37:52.043Z,0
2016-06-20T00:38:51.468Z,0
2016-06-20T00:39:52.706Z,0
2016-06-20T00:40:51.522Z,0
2016-06-20T00:41:51.572Z,0
2016-06-20T00:42:50.997Z,0
2016-06-20T00:43:51.642Z,0
2016-06-20T00:44:51.051Z,0
2016-06-20T00:45:50.493Z,0
2016-06-20T00:46:51.746Z,0
2016-06-20T00:47:52.969Z,0
2016-06-20T00:48:51.800Z,0
2016-06-20T00:49:52.444Z,0
2016-06-20T00:50:51.884Z,0
2016-06-20T00:51:51.935Z,0
2016-06-20T00:52:52.547Z,0
2016-06-20T00:53:52.004Z,0
2016-06-20T00:54:52.007Z,0
2016-06-20T00:55:52.699Z,0
2016-06-20T00:56:52.077Z,0
2016-06-20T00:57:52.112Z,0
2016-06-20T00:58:52.162Z,0
2016-06-20T00:59:52.228Z,0
2016-06-20T01:00:51.623Z,0
2016-06-20T01:01:52.860Z,0
2016-06-20T01:02:52.316Z,0
2016-06-20T01:03:51.727Z,0
2016-06-20T01:04:52.355Z,0
2016-06-20T01:05:52.390Z,0
2016-06-20T01:06:51.830Z,0
2016-06-20T01:07:53.084Z,0
2016-06-20T01:08:53.103Z,0
2016-06-20T01:09:52.544Z,0
2016-06-20T01:10:53.188Z,0
2016-06-20T01:11:51.989Z,0
2016-06-20T01:12:52.648Z,0
2016-06-20T01:13:52.073Z,0
2016-06-20T01:14:52.093Z,0
2016-06-20T01:15:53.362Z,0
2016-06-20T01:16:53.990Z,0
2016-06-20T01:17:53.431Z,0
2016-06-20T01:18:52.231Z,0
2016-06-20T01:19:51.672Z,0
2016-06-20T01:20:52.926Z,0
2016-06-20T01:21:51.726Z,0
2016-06-20T01:22:53.620Z,0
2016-06-20T01:23:52.421Z,0
2016-06-20T01:24:53.659Z,0
2016-06-20T01:25:53.100Z,0
2016-06-20T01:26:53.134Z,0
2016-06-20T01:27:53.153Z,0
2016-06-20T01:28:53.798Z,0
2016-06-20T01:29:52.629Z,0
2016-06-20T01:30:53.273Z,0
2016-06-20T01:31:53.292Z,0
2016-06-20T01:32:52.125Z,0
2016-06-20T01:33:54.596Z,0
2016-06-20T01:34:54.021Z,0
2016-06-20T01:35:53.430Z,0
2016-06-20T01:36:52.888Z,0
2016-06-20T01:37:53.501Z,0
2016-06-20T01:38:54.145Z,0
2016-06-20T01:39:52.977Z,0
2016-06-20T01:40:54.214Z,0
2016-06-20T01:41:54.280Z,0
2016-06-20T01:42:54.284Z,0
2016-06-20T01:43:53.115Z,0
2016-06-20T01:44:53.744Z,0
2016-06-20T01:45:54.997Z,0
2016-06-20T01:46:53.218Z,0
2016-06-20T01:47:54.457Z,0
2016-06-20T01:48:54.475Z,0
2016-06-20T01:49:54.558Z,0
2016-06-20T01:50:53.357Z,0
2016-06-20T01:51:54.002Z,0
2016-06-20T01:52:54.630Z,0
2016-06-20T01:53:53.462Z,0
2016-06-20T01:54:54.091Z,0
2016-06-20T01:55:53.532Z,0
2016-06-20T01:56:54.769Z,0
2016-06-20T01:57:54.195Z,0
2016-06-20T01:58:54.245Z,0
2016-06-20T01:59:53.671Z,0
2016-06-20T02:00:54.314Z,0
2016-06-20T02:01:54.942Z,0
2016-06-20T02:02:54.368Z,0
2016-06-20T02:03:53.793Z,0
2016-06-20T02:04:53.843Z,0
2016-06-20T02:05:53.878Z,0
2016-06-20T02:06:54.492Z,0
2016-06-20T02:07:55.151Z,0
2016-06-20T02:08:54.608Z,0
2016-06-20T02:09:55.220Z,0
2016-06-20T02:10:55.240Z,0
2016-06-20T02:11:53.462Z,0
2016-06-20T02:12:54.106Z,0
2016-06-20T02:13:54.141Z,0
2016-06-20T02:14:55.379Z,0
2016-06-20T02:15:55.429Z,0
2016-06-20T02:16:54.854Z,0
2016-06-20T02:17:54.311Z,0
2016-06-20T02:18:54.314Z,0
2016-06-20T02:19:55.582Z,0
2016-06-20T02:20:55.008Z,0
2016-06-20T02:21:55.011Z,0
2016-06-20T02:22:55.672Z,0
2016-06-20T02:23:55.097Z,0
2016-06-20T02:24:55.132Z,0
2016-06-20T02:25:55.150Z,0
2016-06-20T02:26:56.436Z,0
2016-06-20T02:27:54.626Z,0
2016-06-20T02:28:55.896Z,0
2016-06-20T02:29:55.900Z,0
2016-06-20T02:30:56.543Z,0
2016-06-20T02:31:54.812Z,0
2016-06-20T02:32:55.394Z,0
2016-06-20T02:33:55.444Z,0
2016-06-20T02:34:54.869Z,0
2016-06-20T02:35:55.498Z,0
2016-06-20T02:36:54.923Z,0
2016-06-20T02:37:54.974Z,0
2016-06-20T02:38:56.227Z,0
2016-06-20T02:39:55.636Z,0
2016-06-20T02:40:56.280Z,0
2016-06-20T02:41:55.769Z,0
2016-06-20T02:42:56.350Z,0
2016-06-20T02:43:56.979Z,0
2016-06-20T02:44:57.044Z,0
2016-06-20T02:45:55.861Z,0
2016-06-20T02:46:54.661Z,0
2016-06-20T02:47:56.523Z,0
2016-06-20T02:48:56.574Z,0
2016-06-20T02:49:56.609Z,0
2016-06-20T02:50:56.627Z,0
2016-06-20T02:51:54.850Z,0
2016-06-20T02:52:56.713Z,0
2016-06-20T02:53:54.919Z,0
2016-06-20T02:54:56.141Z,0
2016-06-20T02:55:54.973Z,0
2016-06-20T02:56:56.231Z,0
2016-06-20T02:57:55.056Z,0
2016-06-20T02:58:56.333Z,0
2016-06-20T02:59:55.142Z,0
2016-06-20T03:00:56.403Z,0
2016-06-20T03:01:57.054Z,0
2016-06-20T03:02:56.482Z,0
2016-06-20T03:03:55.301Z,0
2016-06-20T03:04:57.152Z,5
2016-06-20T03:05:57.814Z,5
2016-06-20T03:06:56.633Z,5
2016-06-20T03:07:56.668Z,5
2016-06-20T03:08:56.687Z,5
2016-06-20T03:09:57.349Z,5
2016-06-20T03:10:57.369Z,5
2016-06-20T03:11:56.201Z,5
2016-06-20T03:12:56.220Z,5
2016-06-20T03:13:56.881Z,10
2016-06-20T03:14:56.901Z,10
2016-06-20T03:15:56.935Z,10
2016-06-20T03:16:56.377Z,10
2016-06-20T03:17:57.006Z,10
2016-06-20T03:18:56.463Z,10
2016-06-20T03:19:57.685Z,15
2016-06-20T03:20:57.736Z,15
2016-06-20T03:21:56.536Z,15
2016-06-20T03:22:55.962Z,15
2016-06-20T03:23:56.606Z,15
2016-06-20T03:24:58.454Z,15
2016-06-20T03:25:56.097Z,20
2016-06-20T03:26:57.929Z,20
2016-06-20T03:27:56.807Z,20
2016-06-20T03:28:57.998Z,20
2016-06-20T03:29:56.205Z,20
2016-06-20T03:30:56.833Z,25
2016-06-20T03:31:57.492Z,25
2016-06-20T03:32:57.527Z,25
2016-06-20T03:33:57.563Z,25
2016-06-20T03:34:58.191Z,25
2016-06-20T03:35:57.022Z,30
2016-06-20T03:36:57.666Z,30
2016-06-20T03:37:58.310Z,30
2016-06-20T03:38:57.736Z,30
2016-06-20T03:39:57.162Z,30
2016-06-20T03:40:57.196Z,35
2016-06-20T03:41:57.856Z,35
2016-06-20T03:42:57.859Z,35
2016-06-20T03:43:57.300Z,35
2016-06-20T03:44:57.351Z,40
2016-06-20T03:45:57.370Z,40
2016-06-20T03:46:58.622Z,40
2016-06-20T03:47:58.048Z,40
2016-06-20T03:48:58.067Z,45
2016-06-20T03:49:58.118Z,45
2016-06-20T03:50:57.543Z,45
2016-06-20T03:51:57.562Z,50
2016-06-20T03:52:57.612Z,50
2016-06-20T03:53:59.460Z,50
2016-06-20T03:54:58.900Z,50
2016-06-20T03:55:57.092Z,55
2016-06-20T03:56:57.751Z,55
2016-06-20T03:57:58.380Z,55
2016-06-20T03:58:59.633Z,60
2016-06-20T03:59:57.840Z,60
2016-06-20T04:00:57.296Z,60
2016-06-20T04:01:57.909Z,60
2016-06-20T04:02:58.538Z,60
2016-06-20T04:03:58.603Z,65
2016-06-20T04:04:57.404Z,65
2016-06-20T04:05:59.266Z,65
2016-06-20T04:06:58.098Z,65
2016-06-20T04:07:57.508Z,70
2016-06-20T04:08:59.356Z,70
2016-06-20T04:09:59.405Z,70
2016-06-20T04:10:58.831Z,70
2016-06-20T04:11:58.241Z,70
2016-06-20T04:12:58.275Z,75
2016-06-20T04:13:58.951Z,75
2016-06-20T04:14:58.970Z,75
2016-06-20T04:15:57.786Z,80
2016-06-20T04:16:59.649Z,80
2016-06-20T04:17:59.683Z,80
2016-06-20T04:18:59.108Z,85
2016-06-20T04:19:59.737Z,85
2016-06-20T04:20:59.788Z,90
2016-06-20T04:21:59.821Z,95
2016-06-20T04:22:59.247Z,100
2016-06-20T04:23:59.266Z,100
2016-06-20T04:24:59.317Z,100
2016-06-20T04:25:58.757Z,105
2016-06-20T04:26:59.371Z,105
2016-06-20T04:27:59.421Z,110
2016-06-20T04:28:58.862Z,110
2016-06-20T04:29:59.490Z,115
2016-06-20T04:30:59.510Z,120
2016-06-20T04:31:58.951Z,120
2016-06-20T04:32:59.595Z,120
2016-06-20T04:33:59.629Z,125
2016-06-20T04:35:00.273Z,150
2016-06-20T04:36:00.917Z,185
2016-06-20T04:36:59.733Z,215
2016-06-20T04:37:59.752Z,215
2016-06-20T04:39:00.396Z,225
2016-06-20T04:40:00.447Z,235
2016-06-20T04:40:59.872Z,245
2016-06-20T04:41:58.673Z,250
2016-06-20T04:42:59.941Z,260
2016-06-20T04:44:00.617Z,265
2016-06-20T04:45:01.276Z,275
2016-06-20T04:46:00.655Z,265
2016-06-20T04:46:59.471Z,270
2016-06-20T04:48:00.725Z,280
2016-06-20T04:48:59.540Z,290
2016-06-20T04:50:00.200Z,305
2016-06-20T04:50:59.626Z,310
2016-06-20T04:52:00.270Z,315
2016-06-20T04:52:59.085Z,310
2016-06-20T04:54:00.354Z,315
2016-06-20T04:55:01.593Z,325
2016-06-20T04:56:00.424Z,335
2016-06-20T04:56:59.833Z,350
2016-06-20T04:57:59.884Z,360
2016-06-20T04:59:01.137Z,365
2016-06-20T05:00:00.547Z,370
2016-06-20T05:00:59.989Z,375
2016-06-20T05:02:00.054Z,385
2016-06-20T05:03:01.277Z,390
2016-06-20T05:04:01.311Z,400
2016-06-20T05:05:00.752Z,405
2016-06-20T05:06:00.787Z,415
2016-06-20T05:07:01.432Z,425
2016-06-20T05:08:00.856Z,425
2016-06-20T05:09:00.297Z,435
2016-06-20T05:10:01.551Z,435
2016-06-20T05:11:01.585Z,445
2016-06-20T05:12:01.010Z,450
2016-06-20T05:13:02.280Z,455
2016-06-20T05:14:01.720Z,465
2016-06-20T05:15:00.521Z,460
2016-06-20T05:16:01.790Z,440
2016-06-20T05:17:00.622Z,390
2016-06-20T05:18:01.860Z,400
2016-06-20T05:19:01.285Z,325
2016-06-20T05:20:01.944Z,475
2016-06-20T05:21:00.761Z,480
2016-06-20T05:22:00.811Z,475
2016-06-20T05:23:01.439Z,470
2016-06-20T05:24:02.099Z,480
2016-06-20T05:25:02.133Z,500
2016-06-20T05:26:00.950Z,515
2016-06-20T05:27:02.218Z,520
2016-06-20T05:28:01.675Z,470
2016-06-20T05:29:01.694Z,480
2016-06-20T05:30:00.511Z,285
2016-06-20T05:31:01.154Z,250
2016-06-20T05:32:01.814Z,215
2016-06-20T05:33:01.849Z,195
2016-06-20T05:34:01.274Z,215
2016-06-20T05:35:01.965Z,245
2016-06-20T05:36:02.578Z,340
2016-06-20T05:37:02.003Z,520
2016-06-20T05:38:01.429Z,505
2016-06-20T05:39:02.088Z,555
2016-06-20T05:40:01.513Z,565
2016-06-20T05:41:02.174Z,580
2016-06-20T05:42:00.989Z,580
2016-06-20T05:43:03.462Z,595
2016-06-20T05:44:02.277Z,600
2016-06-20T05:45:02.327Z,605
2016-06-20T05:46:02.362Z,600
2016-06-20T05:47:03.616Z,595
2016-06-20T05:48:02.448Z,605
2016-06-20T05:49:01.872Z,610
2016-06-20T05:50:03.142Z,635
2016-06-20T05:51:02.551Z,660
2016-06-20T05:52:03.821Z,670
2016-06-20T05:53:02.652Z,690
2016-06-20T05:54:02.687Z,695
2016-06-20T05:55:03.347Z,685
2016-06-20T05:56:03.382Z,550
2016-06-20T05:57:02.854Z,460
2016-06-20T05:58:03.466Z,430
2016-06-20T05:59:02.282Z,430
2016-06-20T06:00:03.535Z,310
2016-06-20T06:01:03.602Z,240
2016-06-20T06:02:03.622Z,240
2016-06-20T06:03:03.062Z,235
2016-06-20T06:04:02.487Z,230
2016-06-20T06:05:03.132Z,235
2016-06-20T06:06:03.181Z,240
2016-06-20T06:07:03.232Z,240
2016-06-20T06:08:03.267Z,225
2016-06-20T06:09:03.333Z,220
2016-06-20T06:10:03.336Z,215
2016-06-20T06:11:03.995Z,210
2016-06-20T06:12:02.812Z,210
2016-06-20T06:13:03.471Z,215
2016-06-20T06:14:02.288Z,215
2016-06-20T06:15:04.166Z,220
2016-06-20T06:16:04.810Z,225
2016-06-20T06:17:03.611Z,225
2016-06-20T06:18:03.066Z,225
2016-06-20T06:19:04.306Z,225
2016-06-20T06:20:03.121Z,225
2016-06-20T06:21:03.796Z,225
2016-06-20T06:22:05.019Z,235
2016-06-20T06:23:03.850Z,255
2016-06-20T06:24:03.885Z,250
2016-06-20T06:25:04.529Z,240
2016-06-20T06:26:05.188Z,240
2016-06-20T06:27:04.614Z,235
2016-06-20T06:28:03.430Z,240
2016-06-20T06:29:04.215Z,250
2016-06-20T06:30:04.733Z,245
2016-06-20T06:31:04.175Z,245
2016-06-20T06:32:04.225Z,245
2016-06-20T06:33:04.854Z,235
2016-06-20T06:34:03.669Z,230
2016-06-20T06:35:03.703Z,230
2016-06-20T06:36:04.364Z,230
2016-06-20T06:37:03.773Z,230
2016-06-20T06:38:05.042Z,230
2016-06-20T06:39:04.467Z,230
2016-06-20T06:40:05.143Z,230
2016-06-20T06:41:03.927Z,230
2016-06-20T06:42:04.571Z,230
2016-06-20T06:43:04.622Z,235
2016-06-20T06:44:05.266Z,245
2016-06-20T06:45:04.099Z,230
2016-06-20T06:46:04.727Z,225
2016-06-20T06:47:04.761Z,220
2016-06-20T06:48:05.406Z,225
2016-06-20T06:49:04.268Z,230
2016-06-20T06:50:04.881Z,230
2016-06-20T06:51:05.541Z,240
2016-06-20T06:52:05.560Z,245
2016-06-20T06:53:06.219Z,245
2016-06-20T06:54:05.051Z,245
2016-06-20T06:55:05.086Z,250
2016-06-20T06:56:04.495Z,250
2016-06-20T06:57:05.749Z,250
2016-06-20T06:58:05.815Z,250
2016-06-20T06:59:05.240Z,245
2016-06-20T07:00:04.665Z,240
2016-06-20T07:01:04.685Z,225
2016-06-20T07:02:06.564Z,230
2016-06-20T07:03:05.378Z,220
2016-06-20T07:04:06.023Z,225
2016-06-20T07:05:05.449Z,230
2016-06-20T07:06:05.483Z,240
2016-06-20T07:07:06.189Z,240
2016-06-20T07:08:05.568Z,240
2016-06-20T07:09:06.213Z,245
2016-06-20T07:10:06.263Z,245
2016-06-20T07:11:05.688Z,245
2016-06-20T07:12:06.317Z,245
2016-06-20T07:13:05.163Z,250
2016-06-20T07:14:07.011Z,255
2016-06-20T07:15:05.827Z,270
2016-06-20T07:16:05.861Z,280
2016-06-20T07:17:05.927Z,275
2016-06-20T07:18:06.556Z,265
2016-06-20T07:19:05.403Z,270
2016-06-20T07:20:06.625Z,275
2016-06-20T07:21:06.676Z,275
2016-06-20T07:22:06.726Z,265
2016-06-20T07:23:05.542Z,270
2016-06-20T07:24:06.781Z,255
2016-06-20T07:25:05.611Z,260
2016-06-20T07:26:05.630Z,260
2016-06-20T07:27:06.899Z,265
2016-06-20T07:28:06.934Z,275
2016-06-20T07:29:06.376Z,270
2016-06-20T07:30:07.603Z,265
2016-06-20T07:31:05.849Z,320
2016-06-20T07:32:07.094Z,345
2016-06-20T07:33:05.933Z,315
2016-06-20T07:34:07.209Z,300
2016-06-20T07:35:07.247Z,305
2016-06-20T07:36:07.284Z,345
2016-06-20T07:37:06.711Z,415
2016-06-20T07:38:07.374Z,325
2016-06-20T07:39:08.036Z,330
2016-06-20T07:40:08.056Z,390
2016-06-20T07:41:06.265Z,345
2016-06-20T07:42:07.519Z,350
2016-06-20T07:43:06.960Z,360
2016-06-20T07:44:07.012Z,365
2016-06-20T07:45:07.641Z,465
2016-06-20T07:46:05.864Z,710
2016-06-20T07:47:06.554Z,815
2016-06-20T07:48:07.169Z,910
2016-06-20T07:49:07.203Z,1185
2016-06-20T07:50:06.613Z,1210
2016-06-20T07:51:06.055Z,1265
2016-06-20T07:52:06.728Z,1325
2016-06-20T07:53:07.374Z,1310
2016-06-20T07:54:07.376Z,1480
2016-06-20T07:55:08.036Z,1490
2016-06-20T07:56:08.087Z,1340
2016-06-20T07:57:08.121Z,1400
2016-06-20T07:58:06.938Z,1505
2016-06-20T07:59:08.207Z,1510
2016-06-20T08:00:07.023Z,1510
2016-06-20T08:01:08.307Z,1490
2016-06-20T08:02:08.935Z,1390
2016-06-20T08:03:08.361Z,1370
2016-06-20T08:04:07.802Z,1370
2016-06-20T08:05:08.728Z,1310
2016-06-20T08:06:07.278Z,1325
2016-06-20T08:07:08.563Z,1375
2016-06-20T08:08:08.581Z,1315
2016-06-20T08:09:09.492Z,1105
2016-06-20T08:10:08.666Z,1385
2016-06-20T08:11:08.139Z,1465
2016-06-20T08:12:07.564Z,1475
2016-06-20T08:13:07.614Z,1420
2016-06-20T08:14:07.665Z,1445
2016-06-20T08:15:07.668Z,1405
2016-06-20T08:16:08.344Z,1400
2016-06-20T08:17:08.395Z,1395
2016-06-20T08:18:09.788Z,1390
2016-06-20T08:19:08.479Z,1300
2016-06-20T08:20:07.905Z,580
2016-06-20T08:21:09.158Z,1200
2016-06-20T08:22:09.832Z,645
2016-06-20T08:23:09.258Z,720
2016-06-20T08:24:09.777Z,675
2016-06-20T08:25:09.343Z,745
2016-06-20T08:26:08.800Z,915
2016-06-20T08:27:08.819Z,785
2016-06-20T08:28:10.119Z,710
2016-06-20T08:29:08.935Z,580
2016-06-20T08:30:08.985Z,1135
2016-06-20T08:31:09.630Z,590
2016-06-20T08:32:09.055Z,650
2016-06-20T08:33:09.105Z,650
2016-06-20T08:34:08.704Z,575
2016-06-20T08:35:09.191Z,505
2016-06-20T08:36:10.460Z,530
2016-06-20T08:37:10.494Z,1040
2016-06-20T08:38:09.967Z,645
2016-06-20T08:39:08.751Z,475
2016-06-20T08:40:10.036Z,1165
2016-06-20T08:41:09.478Z,690
2016-06-20T08:42:08.886Z,635
2016-06-20T08:43:10.140Z,1100
2016-06-20T08:44:09.597Z,970
2016-06-20T08:45:09.053Z,540
2016-06-20T08:46:10.323Z,505
2016-06-20T08:47:09.107Z,465
2016-06-20T08:48:10.407Z,595
2016-06-20T08:49:09.817Z,670
2016-06-20T08:50:09.868Z,520
2016-06-20T08:51:09.902Z,570
2016-06-20T08:52:10.547Z,485
2016-06-20T08:53:10.628Z,745
2016-06-20T08:54:10.647Z,555
2016-06-20T08:55:10.072Z,885
2016-06-20T08:56:11.342Z,530
2016-06-20T08:57:11.392Z,515
2016-06-20T08:58:10.207Z,550
2016-06-20T08:59:10.852Z,1355
2016-06-20T09:00:10.902Z,860
2016-06-20T09:01:10.327Z,920
2016-06-20T09:02:09.768Z,795
2016-06-20T09:03:11.647Z,785
2016-06-20T09:04:11.057Z,665
2016-06-20T09:05:11.717Z,620
2016-06-20T09:06:10.547Z,865
2016-06-20T09:07:09.989Z,615
2016-06-20T09:08:10.024Z,485
2016-06-20T09:09:11.917Z,445
2016-06-20T09:10:10.734Z,430
2016-06-20T09:11:10.160Z,425
2016-06-20T09:12:12.038Z,445
2016-06-20T09:13:10.854Z,445
2016-06-20T09:14:10.294Z,435
2016-06-20T09:15:11.532Z,435
2016-06-20T09:16:11.583Z,460
2016-06-20T09:17:11.023Z,485
2016-06-20T09:18:11.058Z,555
2016-06-20T09:19:11.109Z,620
2016-06-20T09:20:10.549Z,870
2016-06-20T09:21:11.787Z,635
2016-06-20T09:22:11.244Z,705
2016-06-20T09:23:11.279Z,630
2016-06-20T09:24:12.735Z,760
2016-06-20T09:25:11.379Z,735
2016-06-20T09:26:10.789Z,820
2016-06-20T09:27:10.840Z,1220
2016-06-20T09:28:12.718Z,1810
2016-06-20T09:29:12.127Z,1490
2016-06-20T09:30:12.178Z,595
2016-06-20T09:31:11.618Z,655
2016-06-20T09:32:12.279Z,1030
2016-06-20T09:33:11.689Z,810
2016-06-20T09:34:12.988Z,615
2016-06-20T09:35:11.179Z,625
2016-06-20T09:36:11.824Z,710
2016-06-20T09:37:11.280Z,795
2016-06-20T09:38:11.924Z,775
2016-06-20T09:39:13.178Z,855
2016-06-20T09:40:12.618Z,860
2016-06-20T09:41:11.435Z,875
2016-06-20T09:42:12.688Z,860
2016-06-20T09:43:11.535Z,865
2016-06-20T09:44:11.571Z,805
2016-06-20T09:45:12.870Z,720
2016-06-20T09:46:11.671Z,710
2016-06-20T09:47:12.909Z,685
2016-06-20T09:48:12.585Z,685
2016-06-20T09:49:11.806Z,660
2016-06-20T09:50:13.466Z,630
2016-06-20T09:51:13.687Z,615
2016-06-20T09:52:13.738Z,585
2016-06-20T09:53:12.569Z,590
2016-06-20T09:54:13.214Z,530
2016-06-20T09:55:12.654Z,465
2016-06-20T09:56:12.690Z,485
2016-06-20T09:57:13.365Z,475
2016-06-20T09:58:13.400Z,455
2016-06-20T09:59:12.215Z,515
2016-06-20T10:00:12.891Z,495
2016-06-20T10:01:13.550Z,470
2016-06-20T10:02:12.350Z,510
2016-06-20T10:03:11.807Z,505
2016-06-20T10:04:13.045Z,480
2016-06-20T10:05:13.721Z,510
2016-06-20T10:06:13.740Z,520
2016-06-20T10:07:13.775Z,545
2016-06-20T10:08:13.200Z,565
2016-06-20T10:09:13.266Z,600
2016-06-20T10:10:13.301Z,585
2016-06-20T10:11:13.335Z,655
2016-06-20T10:12:12.777Z,685
2016-06-20T10:13:14.046Z,700
2016-06-20T10:14:12.252Z,720
2016-06-20T10:15:12.911Z,740
2016-06-20T10:16:13.557Z,805
2016-06-20T10:17:13.013Z,735
2016-06-20T10:18:13.063Z,765
2016-06-20T10:19:13.113Z,790
2016-06-20T10:20:13.726Z,800
2016-06-20T10:21:13.776Z,810
2016-06-20T10:22:13.827Z,720
2016-06-20T10:23:14.456Z,715
2016-06-20T10:24:13.912Z,755
2016-06-20T10:25:13.337Z,945
2016-06-20T10:26:13.466Z,975
2016-06-20T10:27:13.422Z,885
2016-06-20T10:28:14.081Z,885
2016-06-20T10:29:14.101Z,1195
2016-06-20T10:30:14.151Z,1695
2016-06-20T10:31:15.436Z,1455
2016-06-20T10:32:15.455Z,1120
2016-06-20T10:33:14.896Z,1045
2016-06-20T10:34:14.369Z,1040
2016-06-20T10:35:14.981Z,1085
2016-06-20T10:36:14.422Z,905
2016-06-20T10:37:15.066Z,920
2016-06-20T10:38:14.507Z,900
2016-06-20T10:39:13.932Z,850
2016-06-20T10:40:14.592Z,760
2016-06-20T10:41:15.267Z,760
2016-06-20T10:42:14.692Z,740
2016-06-20T10:43:14.118Z,640
2016-06-20T10:44:15.403Z,585
2016-06-20T10:45:13.593Z,460
2016-06-20T10:46:13.644Z,420
2016-06-20T10:47:15.507Z,365
2016-06-20T10:48:14.963Z,435
2016-06-20T10:49:14.389Z,460
2016-06-20T10:50:16.283Z,450
2016-06-20T10:51:15.084Z,410
2016-06-20T10:52:15.727Z,335
2016-06-20T10:53:15.168Z,305
2016-06-20T10:54:14.594Z,275
2016-06-20T10:55:14.628Z,275
2016-06-20T10:56:15.288Z,275
2016-06-20T10:57:15.369Z,310
2016-06-20T10:58:15.998Z,315
2016-06-20T10:59:16.033Z,310
2016-06-20T11:00:15.473Z,300
2016-06-20T11:01:16.118Z,310
2016-06-20T11:02:15.559Z,365
2016-06-20T11:03:16.219Z,375
2016-06-20T11:04:16.253Z,420
2016-06-20T11:05:15.694Z,415
2016-06-20T11:06:15.744Z,450
2016-06-20T11:07:16.983Z,440
2016-06-20T11:08:16.423Z,445
2016-06-20T11:09:16.473Z,430
2016-06-20T11:10:16.508Z,425
2016-06-20T11:11:17.168Z,420
2016-06-20T11:12:16.593Z,420
2016-06-20T11:13:16.018Z,405
2016-06-20T11:14:15.460Z,395
2016-06-20T11:15:16.728Z,380
2016-06-20T11:16:16.764Z,375
2016-06-20T11:17:15.580Z,395
2016-06-20T11:18:15.021Z,380
2016-06-20T11:19:16.274Z,355
2016-06-20T11:20:16.340Z,345
2016-06-20T11:21:17.624Z,330
2016-06-20T11:22:17.613Z,330
2016-06-20T11:23:15.256Z,335
2016-06-20T11:24:17.713Z,340
2016-06-20T11:25:16.529Z,345
2016-06-20T11:26:16.564Z,350
2016-06-20T11:27:17.223Z,360
2016-06-20T11:28:16.648Z,370
2016-06-20T11:29:16.699Z,360
2016-06-20T11:30:17.374Z,360
2016-06-20T11:31:17.394Z,345
2016-06-20T11:32:16.209Z,335
2016-06-20T11:33:16.868Z,325
2016-06-20T11:34:16.888Z,315
2016-06-20T11:35:16.954Z,310
2016-06-20T11:36:18.208Z,325
2016-06-20T11:37:17.040Z,325
2016-06-20T11:38:18.340Z,325
2016-06-20T11:39:17.124Z,330
2016-06-20T11:40:18.362Z,340
2016-06-20T11:41:17.803Z,350
2016-06-20T11:42:17.244Z,360
2016-06-20T11:43:17.904Z,360
2016-06-20T11:44:18.532Z,365
2016-06-20T11:45:17.379Z,375
2016-06-20T11:46:17.414Z,375
2016-06-20T11:47:16.214Z,365
2016-06-20T11:48:17.484Z,370
2016-06-20T11:49:17.534Z,365
2016-06-20T11:50:17.553Z,360
2016-06-20T11:51:18.822Z,360
2016-06-20T11:52:18.856Z,355
2016-06-20T11:53:17.687Z,355
2016-06-20T11:54:17.145Z,355
2016-06-20T11:55:18.367Z,355
2016-06-20T11:56:18.417Z,355
2016-06-20T11:57:17.859Z,350
2016-06-20T11:58:19.127Z,345
2016-06-20T12:11:32.701Z,400
2016-06-20T12:11:54.748Z,400
2016-06-20T12:12:54.800Z,400
2016-06-20T12:13:54.287Z,400
2016-06-20T12:14:54.275Z,405
2016-06-20T12:15:54.920Z,405
2016-06-20T12:16:54.970Z,410
2016-06-20T12:17:55.005Z,410
2016-06-20T12:18:55.055Z,405
2016-06-20T12:19:54.512Z,395
2016-06-20T12:20:55.751Z,385
2016-06-20T12:21:55.786Z,370
2016-06-20T12:22:55.851Z,365
2016-06-20T12:23:55.261Z,365
2016-06-20T12:24:55.905Z,345
2016-06-20T12:25:55.346Z,340
2016-06-20T12:26:56.614Z,330
2016-06-20T12:27:56.040Z,325
2016-06-20T12:28:56.074Z,320
2016-06-20T12:29:55.516Z,315
2016-06-20T12:30:54.363Z,310
2016-06-20T12:31:55.585Z,305
2016-06-20T12:32:55.635Z,300
2016-06-20T12:33:56.905Z,295
2016-06-20T12:34:55.127Z,295
2016-06-20T12:35:56.381Z,290
2016-06-20T12:36:56.447Z,290
2016-06-20T12:37:55.247Z,290
2016-06-20T12:38:56.500Z,295
2016-06-20T12:39:55.942Z,300
2016-06-20T12:40:55.976Z,305
2016-06-20T12:41:56.604Z,315
2016-06-20T12:42:56.044Z,325
2016-06-20T12:43:56.706Z,330
2016-06-20T12:44:56.740Z,335
2016-06-20T12:45:57.399Z,340
2016-06-20T12:46:57.449Z,350
2016-06-20T12:47:56.859Z,355
2016-06-20T12:48:56.894Z,385
2016-06-20T12:49:57.569Z,425
2016-06-20T12:50:56.994Z,465
2016-06-20T12:51:55.201Z,465
2016-06-20T12:52:57.080Z,480
2016-06-20T12:53:57.740Z,465
2016-06-20T12:54:57.164Z,445
2016-06-20T12:55:56.590Z,445
2016-06-20T12:56:57.250Z,445
2016-06-20T12:57:57.285Z,450
2016-06-20T12:58:56.710Z,465
2016-06-20T12:59:56.792Z,495
2016-06-20T13:00:56.795Z,545
2016-06-20T13:01:56.830Z,590
2016-06-20T13:02:58.099Z,615
2016-06-20T13:03:57.805Z,640
2016-06-20T13:04:56.965Z,585
2016-06-20T13:05:57.016Z,630
2016-06-20T13:06:57.644Z,755
2016-06-20T13:07:55.866Z,590
2016-06-20T13:08:57.729Z,585
2016-06-20T13:09:58.374Z,580
2016-06-20T13:10:57.830Z,520
2016-06-20T13:11:58.458Z,520
2016-06-20T13:12:57.898Z,580
2016-06-20T13:13:56.731Z,590
2016-06-20T13:14:57.422Z,595
2016-06-20T13:15:58.034Z,555
2016-06-20T13:16:56.256Z,565
2016-06-20T13:17:57.510Z,650
2016-06-20T13:18:56.327Z,740
2016-06-20T13:20:30.754Z,700
2016-06-20T13:20:58.239Z,655
2016-06-20T13:21:58.274Z,610
2016-06-20T13:22:58.981Z,590
2016-06-20T13:23:58.454Z,500
2016-06-20T13:24:57.191Z,460
2016-06-20T13:25:57.882Z,440
2016-06-20T13:26:58.495Z,420
2016-06-20T13:27:58.561Z,405
2016-06-20T13:28:57.970Z,390
2016-06-20T13:29:59.240Z,365
2016-06-20T13:30:58.072Z,340
2016-06-20T13:31:58.106Z,325
2016-06-20T13:32:58.765Z,320
2016-06-20T13:33:58.785Z,325
2016-06-20T13:34:57.633Z,315
2016-06-20T13:35:58.276Z,310
2016-06-20T13:36:59.529Z,305
2016-06-20T13:37:59.299Z,300
2016-06-20T13:38:59.036Z,285
2016-06-20T13:39:57.228Z,275
2016-06-20T13:40:58.481Z,260
2016-06-20T13:41:59.140Z,250
2016-06-20T13:42:58.613Z,245
2016-06-20T13:43:59.820Z,245
2016-06-20T13:44:58.760Z,250
2016-06-20T13:45:58.716Z,250
2016-06-20T13:46:59.970Z,250
2016-06-20T13:47:59.395Z,240
2016-06-20T13:48:58.820Z,230
2016-06-20T13:49:59.480Z,215
2016-06-20T13:51:00.125Z,215
2016-06-20T13:51:58.347Z,220
2016-06-20T13:52:58.382Z,220
2016-06-20T13:53:59.635Z,220
2016-06-20T13:54:58.497Z,220
2016-06-20T13:56:00.330Z,220
2016-06-20T13:56:59.192Z,215
2016-06-20T13:57:59.212Z,210
2016-06-20T13:58:59.247Z,205
2016-06-20T14:00:14.187Z,210
2016-06-20T14:00:59.348Z,215
2016-06-20T14:01:58.757Z,215
2016-06-20T14:02:34.461Z,220
2016-06-20T14:02:59.400Z,220
2016-06-20T14:04:59.517Z,220
2016-06-20T14:05:34.001Z,225
2016-06-20T14:05:59.536Z,225
2016-06-20T14:06:34.021Z,225
2016-06-20T14:09:00.265Z,235
2016-06-20T14:10:00.299Z,245
2016-06-20T14:10:33.538Z,265
2016-06-20T14:10:59.132Z,250
2016-06-20T14:13:00.435Z,285